createdAt,value
2019-02-20T04:31:37.003Z,78.70
2019-02-20T05:15:09.247Z,79.40
2019-02-20T07:24:26.757Z,78.20
2019-02-20T07:39:31.524Z,77.30
2019-02-20T07:46:36.261Z,76.10
2019-02-20T08:18:32.804Z,70.00
2019-02-20T08:21:09.231Z,69.40
2019-02-20T08:23:41.915Z,69.20
2019-02-20T08:26:16.138Z,67.50
2019-02-20T08:28:48.603Z,65.20
2019-02-20T08:31:37.362Z,63.50
2019-02-20T08:34:17.414Z,63.20
2019-02-20T08:37:02.158Z,63.70
2019-02-20T08:39:39.693Z,65.00
2019-02-20T08:42:10.661Z,63.50
2019-02-20T08:44:42.869Z,64.60
2019-02-20T08:47:25.700Z,64.20
2019-02-20T08:49:54.441Z,63.80
2019-02-20T08:52:26.090Z,62.50
2019-02-20T08:54:59.303Z,63.80
2019-02-20T08:57:31.256Z,62.30
2019-02-20T09:00:06.016Z,62.70
2019-02-20T09:02:38.191Z,63.30
2019-02-20T09:05:11.684Z,63.30
2019-02-20T09:07:42.999Z,63.60
2019-02-20T09:10:13.823Z,63.70
2019-02-20T09:12:44.617Z,63.50
2019-02-20T09:15:19.892Z,64.20
2019-02-20T09:17:52.819Z,61.90
2019-02-20T09:20:25.163Z,61.10
2019-02-20T09:22:58.184Z,60.80
2019-02-20T09:25:41.513Z,60.40
2019-02-20T09:28:08.607Z,58.90
2019-02-20T09:30:39.556Z,61.70
2019-02-20T09:33:16.450Z,59.60
2019-02-20T09:35:54.546Z,60.20
2019-02-20T09:38:28.607Z,61.50
2019-02-20T09:41:04.933Z,60.60
2019-02-20T09:43:50.476Z,59.60
2019-02-20T09:46:53.417Z,60.30
2019-02-20T09:49:47.499Z,58.90
2019-02-20T09:52:23.550Z,60.30
2019-02-20T09:55:05.247Z,59.10
2019-02-20T09:57:31.372Z,58.60
2019-02-20T10:00:03.388Z,59.10
2019-02-20T10:02:37.329Z,57.30
2019-02-20T10:05:08.628Z,57.00
2019-02-20T10:07:44.973Z,57.20
2019-02-20T10:10:15.983Z,58.60
2019-02-20T10:12:47.271Z,57.50
2019-02-20T10:18:07.721Z,56.20
2019-02-20T10:20:39.402Z,56.00
2019-02-20T10:23:21.477Z,57.20
2019-02-20T10:26:00.885Z,57.00
2019-02-20T10:28:49.976Z,56.50
2019-02-20T10:31:23.524Z,55.60
2019-02-20T10:33:58.809Z,55.90
2019-02-20T10:36:29.330Z,56.40
2019-02-20T10:39:06.910Z,56.60
2019-02-20T10:41:38.920Z,55.50
2019-02-20T10:44:10.886Z,56.60
2019-02-20T10:46:41.451Z,55.10
2019-02-20T10:52:06.840Z,54.30
2019-02-20T10:54:39.173Z,55.60
2019-02-20T11:00:49.931Z,52.50
2019-02-20T11:04:12.645Z,52.30
2019-02-20T11:06:49.760Z,52.40
2019-02-20T11:12:02.313Z,51.50
2019-02-20T11:14:37.734Z,51.20
2019-02-20T11:17:17.263Z,51.30
2019-02-20T11:22:26.562Z,50.30
2019-02-20T11:25:13.698Z,50.00
2019-02-20T11:27:49.696Z,49.70
2019-02-20T11:30:25.793Z,49.60
2019-02-20T11:33:05.053Z,50.10
2019-02-20T11:35:51.517Z,49.50
2019-02-20T11:38:42.896Z,49.50
2019-02-20T11:41:25.215Z,49.30
2019-02-20T11:46:40.955Z,49.20
2019-02-20T11:49:18.694Z,48.50
2019-02-20T11:51:49.959Z,48.00
2019-02-20T11:54:22.929Z,46.90
2019-02-20T11:59:30.711Z,46.90
2019-02-20T12:02:05.869Z,46.60
2019-02-20T12:04:39.310Z,46.40
2019-02-20T12:07:18.265Z,46.30
2019-02-20T12:09:52.066Z,46.20
2019-02-20T12:12:29.893Z,45.70
2019-02-20T12:15:01.812Z,45.10
2019-02-20T12:17:35.885Z,45.30
2019-02-20T12:20:42.112Z,46.80
2019-02-20T12:24:33.548Z,44.70
2019-02-20T12:27:10.662Z,45.00
2019-02-20T12:30:24.764Z,46.00
2019-02-20T12:35:43.261Z,45.10
2019-02-20T12:41:35.942Z,45.50
2019-02-20T12:44:07.110Z,45.50
2019-02-20T12:46:57.864Z,44.50
2019-02-20T12:49:47.988Z,45.70
2019-02-20T12:55:16.082Z,43.50
2019-02-20T12:57:52.326Z,44.90
2019-02-20T13:03:01.430Z,45.00
2019-02-20T13:08:25.859Z,44.70
2019-02-20T13:18:37.848Z,44.30
2019-02-20T13:23:38.561Z,44.20
2019-02-20T13:26:11.935Z,44.30
2019-02-20T13:31:25.524Z,44.80
2019-02-20T13:36:30.171Z,43.90
2019-02-20T13:41:54.531Z,43.90
2019-02-20T13:51:56.032Z,44.30
2019-02-20T13:57:01.788Z,44.00
2019-02-20T13:59:31.223Z,44.20
2019-02-20T14:02:02.200Z,43.70
2019-02-20T14:07:04.602Z,43.90
2019-02-20T14:14:38.881Z,44.30
2019-02-20T14:17:09.524Z,44.50
2019-02-20T14:19:40.138Z,44.00
2019-02-20T14:29:41.868Z,44.50
2019-02-20T14:37:13.464Z,43.70
2019-02-20T14:39:43.911Z,43.30
2019-02-20T14:47:14.523Z,44.30
2019-02-20T14:49:47.950Z,44.20
2019-02-20T14:52:18.682Z,44.20
2019-02-20T15:02:26.065Z,44.80
2019-02-20T15:04:59.957Z,45.00
2019-02-20T15:07:30.970Z,44.70
2019-02-20T15:10:01.482Z,45.50
2019-02-20T15:15:10.280Z,45.70
2019-02-20T15:20:05.707Z,45.90
2019-02-20T15:22:36.499Z,46.20
2019-02-20T15:25:07.331Z,46.40
2019-02-20T15:30:09.342Z,48.00
2019-02-20T15:37:40.522Z,45.60
2019-02-20T15:42:40.881Z,46.50
2019-02-20T15:50:11.504Z,45.90
2019-02-20T15:52:42.172Z,45.20
2019-02-20T15:57:44.998Z,44.10
2019-02-20T16:00:16.995Z,44.60
2019-02-20T16:07:49.569Z,45.30
2019-02-20T16:12:54.109Z,45.90
2019-02-20T16:17:56.842Z,46.40
2019-02-20T16:22:57.860Z,46.80
2019-02-20T16:28:00.579Z,47.60
2019-02-20T16:30:32.263Z,47.90
2019-02-20T16:35:33.351Z,48.60
2019-02-20T16:38:04.570Z,49.00
2019-02-20T16:40:35.120Z,49.30
2019-02-20T16:48:08.394Z,50.70
2019-02-20T16:53:09.354Z,51.60
2019-02-20T16:55:44.507Z,52.20
2019-02-20T16:58:16.330Z,52.80
2019-02-20T17:00:48.395Z,53.00
2019-02-20T17:03:18.902Z,53.30
2019-02-20T17:05:52.481Z,54.40
2019-02-20T17:11:30.984Z,54.20
2019-02-20T17:14:03.457Z,55.20
2019-02-20T17:16:38.787Z,55.40
2019-02-20T17:31:47.098Z,57.00
2019-02-20T17:36:50.548Z,57.40
2019-02-20T17:39:23.209Z,58.00
2019-02-20T17:41:53.752Z,57.90
2019-02-20T17:44:24.125Z,58.20
2019-02-20T17:49:30.702Z,58.60
2019-02-20T17:52:04.747Z,58.30
2019-02-20T18:07:11.515Z,59.80
2019-02-20T18:12:13.782Z,60.20
2019-02-20T18:14:44.210Z,60.00
2019-02-20T18:17:14.903Z,60.50
2019-02-20T18:19:46.730Z,60.40
2019-02-20T18:22:17.220Z,60.80
2019-02-20T18:24:49.621Z,62.30
2019-02-20T18:27:24.012Z,61.40
2019-02-20T18:29:54.420Z,63.30
2019-02-20T18:39:55.690Z,62.40
2019-02-20T18:42:26.953Z,63.10
2019-02-20T18:55:05.502Z,63.20
2019-02-20T19:00:00.991Z,64.50
2019-02-20T19:02:36.142Z,64.70
2019-02-20T19:05:06.966Z,65.00
2019-02-20T19:10:11.289Z,64.60
2019-02-20T19:12:52.986Z,64.20
2019-02-20T19:24:40.381Z,64.50
2019-02-20T19:27:42.408Z,65.20
2019-02-20T19:33:22.874Z,65.40
2019-02-20T19:42:10.261Z,66.50
2019-02-20T19:45:08.915Z,64.00
2019-02-20T19:48:08.391Z,66.70
2019-02-20T19:54:00.341Z,67.00
2019-02-20T20:02:28.185Z,67.50
2019-02-20T20:05:25.191Z,68.00
2019-02-20T20:08:41.475Z,67.60
2019-02-20T20:14:33.937Z,67.90
2019-02-20T20:17:31.500Z,68.00
2019-02-20T20:20:37.031Z,67.90
2019-02-20T20:27:00.425Z,67.20
2019-02-20T20:30:12.704Z,67.00
2019-02-20T20:33:38.674Z,66.60
2019-02-20T20:36:52.259Z,67.00
2019-02-20T20:42:54.827Z,66.70
2019-02-20T20:48:43.972Z,67.50
2019-02-20T20:54:14.790Z,68.00
2019-02-20T20:57:30.743Z,67.70
2019-02-20T21:00:25.906Z,68.50
2019-02-20T21:06:15.886Z,67.80
2019-02-20T21:09:19.538Z,67.70
2019-02-20T21:18:20.626Z,67.90
2019-02-20T21:21:27.991Z,68.10
2019-02-20T21:24:51.516Z,68.30
2019-02-20T21:27:47.816Z,68.40
2019-02-20T21:30:41.790Z,68.50
2019-02-20T21:34:04.753Z,68.60
2019-02-20T21:36:59.513Z,70.40
2019-02-20T21:40:04.566Z,68.60
2019-02-20T21:42:56.384Z,68.70
2019-02-20T21:45:51.977Z,68.80
2019-02-20T21:48:56.736Z,68.90
2019-02-20T21:52:08.481Z,69.30
2019-02-20T21:55:12.111Z,69.60
2019-02-20T22:00:58.157Z,69.60
2019-02-20T22:04:08.482Z,70.00
2019-02-20T22:07:16.495Z,69.90
2019-02-20T22:10:26.004Z,69.80
2019-02-20T22:16:35.140Z,70.20
2019-02-20T22:19:52.717Z,70.30
2019-02-20T22:23:08.496Z,70.10
2019-02-20T22:25:51.664Z,70.20
2019-02-20T22:31:45.827Z,70.70
2019-02-20T22:34:53.775Z,70.60
2019-02-20T22:38:01.793Z,70.60
2019-02-20T22:40:53.954Z,70.40
2019-02-20T22:44:09.552Z,70.60
2019-02-20T22:52:30.091Z,71.10
2019-02-20T22:55:23.380Z,71.10
2019-02-20T22:58:21.226Z,70.90
2019-02-20T23:04:01.288Z,71.50
2019-02-20T23:09:54.486Z,71.10
2019-02-20T23:12:56.655Z,71.60
2019-02-20T23:15:26.880Z,71.40
2019-02-20T23:17:57.446Z,71.50
2019-02-20T23:20:27.648Z,71.40
2019-02-20T23:22:58.031Z,71.60
2019-02-20T23:25:28.897Z,72.20
2019-02-20T23:27:59.545Z,71.90
2019-02-20T23:30:29.828Z,71.90
2019-02-20T23:35:33.472Z,71.70
2019-02-20T23:38:03.683Z,71.90
2019-02-20T23:40:34.195Z,74.40
2019-02-20T23:43:04.376Z,71.90
2019-02-20T23:45:34.817Z,72.20
2019-02-20T23:48:04.957Z,72.30
2019-02-20T23:50:35.093Z,72.40
2019-02-20T23:53:07.823Z,72.50
2019-02-20T23:55:41.315Z,72.60
2019-02-20T23:58:11.507Z,72.50
